Time,TemperatureF,DewpointF,PressureIn,WindDirection,WindDirectionDegrees,WindSpeedMPH,WindSpeedGustMPH,Humidity,HourlyPrecipIn,Conditions,Clouds,dailyrainin,SolarRadiationWatts/m^2,SoftwareType,DateUTC
2013-09-30 00:01:00,47.6,44.2,30.09,SW,222,0.0,0.0,88,0.00,RA,,0.00,0.0,WeatherDisplay:10.37,2013-09-30 04:01:00,
2013-09-30 00:02:00,47.6,44.2,30.09,SW,222,0.0,0.0,88,0.00,RA,,0.00,0.0,WeatherDisplay:10.37,2013-09-30 04:02:00,
2013-09-30 00:07:00,47.4,44.0,30.08,SW,222,0.0,0.0,88,0.00,RA,,0.00,0.0,WeatherDisplay:10.37,2013-09-30 04:07:00,
2013-09-30 00:12:00,47.4,44.0,30.08,SW,222,0.0,0.0,88,0.00,SCT,,0.00,0.0,WeatherDisplay:10.37,2013-09-30 04:12:00,
2013-09-30 00:17:00,47.4,44.0,30.08,SW,222,0.0,0.0,88,0.00,SCT,,0.00,0.0,WeatherDisplay:10.37,2013-09-30 04:17:00,
2013-09-30 00:22:00,47.1,43.7,30.08,SW,222,0.0,0.0,88,0.00,SCT,,0.00,0.0,WeatherDisplay:10.37,2013-09-30 04:22:00,
2013-09-30 00:27:00,46.7,43.3,30.08,SW,222,0.0,0.0,88,0.00,SCT,,0.00,0.0,WeatherDisplay:10.37,2013-09-30 04:27:00,
2013-09-30 00:32:00,46.5,43.1,30.08,SW,222,0.0,0.0,88,0.00,SCT,,0.00,0.0,WeatherDisplay:10.37,2013-09-30 04:32:00,
2013-09-30 00:37:00,46.5,43.1,30.08,SW,222,0.0,0.0,88,0.00,SCT,,0.00,0.0,WeatherDisplay:10.37,2013-09-30 04:37:00,
2013-09-30 00:42:00,46.4,43.0,30.08,SW,222,0.0,0.0,88,0.00,SCT,,0.00,0.0,WeatherDisplay:10.37,2013-09-30 04:42:00,
2013-09-30 00:47:00,46.2,42.8,30.08,SW,222,0.0,0.0,88,0.00,SCT,,0.00,0.0,WeatherDisplay:10.37,2013-09-30 04:47:00,
2013-09-30 00:52:00,46.2,42.8,30.08,SW,222,0.0,0.0,88,0.00,SCT,,0.00,0.0,WeatherDisplay:10.37,2013-09-30 04:52:00,
2013-09-30 00:57:00,46.1,42.7,30.07,SW,222,0.0,0.0,88,0.00,SCT,,0.00,0.0,WeatherDisplay:10.37,2013-09-30 04:57:00,
2013-09-30 01:02:00,46.0,42.6,30.07,SW,222,0.0,0.0,88,0.00,BKN,,0.00,0.0,WeatherDisplay:10.37,2013-09-30 05:02:00,
2013-09-30 01:07:00,46.1,42.7,30.07,SW,222,0.0,0.0,88,0.00,BKN,,0.00,0.0,WeatherDisplay:10.37,2013-09-30 05:07:00,
2013-09-30 01:12:00,46.0,42.6,30.07,SW,222,0.0,0.0,88,0.00,BKN,,0.00,0.0,WeatherDisplay:10.37,2013-09-30 05:12:00,
2013-09-30 01:17:00,46.0,42.6,30.07,SW,222,0.0,0.0,88,0.00,BKN,,0.00,0.0,WeatherDisplay:10.37,2013-09-30 05:17:00,
2013-09-30 01:22:00,45.8,42.4,30.07,SW,222,0.0,0.0,88,0.00,BKN,,0.00,0.0,WeatherDisplay:10.37,2013-09-30 05:22:00,
2013-09-30 01:27:00,45.8,42.7,30.07,SW,222,0.0,0.0,89,0.00,BKN,,0.00,0.0,WeatherDisplay:10.37,2013-09-30 05:27:00,
2013-09-30 01:32:00,46.0,42.9,30.07,SW,222,0.0,0.0,89,0.00,BKN,,0.00,0.0,WeatherDisplay:10.37,2013-09-30 05:32:00,
2013-09-30 01:37:00,45.8,42.7,30.07,SW,222,0.0,0.0,89,0.00,BKN,,0.00,0.0,WeatherDisplay:10.37,2013-09-30 05:37:00,
2013-09-30 01:42:00,45.5,42.4,30.07,SW,222,0.0,0.0,89,0.00,BKN,,0.00,0.0,WeatherDisplay:10.37,2013-09-30 05:42:00,
2013-09-30 01:47:00,45.5,42.4,30.07,SW,222,0.0,0.0,89,0.00,BKN,,0.00,0.0,WeatherDisplay:10.37,2013-09-30 05:47:00,
2013-09-30 01:52:00,45.4,42.3,30.07,SW,222,0.0,0.0,89,0.00,BKN,,0.00,0.0,WeatherDisplay:10.37,2013-09-30 05:52:00,
2013-09-30 01:57:00,45.4,42.3,30.07,SW,222,0.0,0.0,89,0.00,BKN,,0.00,0.0,WeatherDisplay:10.37,2013-09-30 05:57:00,
2013-09-30 02:02:00,45.2,42.2,30.07,SW,222,0.0,0.0,89,0.00,BKN,,0.00,0.0,WeatherDisplay:10.37,2013-09-30 06:02:00,
2013-09-30 02:07:00,45.1,42.1,30.07,SW,222,0.0,0.0,89,0.00,BKN,,0.00,0.0,WeatherDisplay:10.37,2013-09-30 06:07:00,
2013-09-30 02:12:00,45.1,42.1,30.07,SW,222,0.0,0.0,89,0.00,SCT,,0.00,0.0,WeatherDisplay:10.37,2013-09-30 06:12:00,
2013-09-30 02:17:00,45.2,42.2,30.07,SW,222,0.0,0.0,89,0.00,SCT,,0.00,0.0,WeatherDisplay:10.37,2013-09-30 06:17:00,
2013-09-30 02:22:00,45.1,42.1,30.07,SW,222,0.0,0.0,89,0.00,SCT,,0.00,0.0,WeatherDisplay:10.37,2013-09-30 06:22:00,
2013-09-30 02:27:00,45.1,42.1,30.07,SW,222,0.0,0.0,89,0.00,SCT,,0.00,0.0,WeatherDisplay:10.37,2013-09-30 06:27:00,
2013-09-30 02:32:00,44.9,41.9,30.07,SW,222,0.0,0.0,89,0.00,SCT,,0.00,0.0,WeatherDisplay:10.37,2013-09-30 06:32:00,
2013-09-30 02:37:00,44.9,41.9,30.07,SW,222,0.0,0.0,89,0.00,SCT,,0.00,0.0,WeatherDisplay:10.37,2013-09-30 06:37:00,
2013-09-30 02:42:00,44.9,41.9,30.07,SW,222,0.0,0.0,89,0.00,SCT,,0.00,0.0,WeatherDisplay:10.37,2013-09-30 06:42:00,
2013-09-30 02:47:00,44.8,41.8,30.07,SW,222,0.0,0.0,89,0.00,SCT,,0.00,0.0,WeatherDisplay:10.37,2013-09-30 06:47:00,
2013-09-30 02:52:00,44.5,41.5,30.08,SW,222,0.0,0.0,89,0.00,SCT,,0.00,0.0,WeatherDisplay:10.37,2013-09-30 06:52:00,
2013-09-30 02:57:00,44.8,42.0,30.07,SW,222,0.0,0.0,90,0.00,SCT,,0.00,0.0,WeatherDisplay:10.37,2013-09-30 06:57:00,
2013-09-30 03:02:00,45.1,42.3,30.07,SW,222,0.0,0.0,90,0.00,SCT,,0.00,0.0,WeatherDisplay:10.37,2013-09-30 07:02:00,
2013-09-30 03:07:00,45.4,42.6,30.07,SW,222,0.0,0.0,90,0.00,SCT,,0.00,0.0,WeatherDisplay:10.37,2013-09-30 07:07:00,
2013-09-30 03:12:00,45.2,42.4,30.07,SW,222,0.0,0.0,90,0.00,SCT,,0.00,0.0,WeatherDisplay:10.37,2013-09-30 07:12:00,
2013-09-30 03:17:00,45.1,42.3,30.07,SW,222,0.0,0.0,90,0.00,SCT,,0.00,0.0,WeatherDisplay:10.37,2013-09-30 07:17:00,
2013-09-30 03:22:00,44.9,42.1,30.07,SW,222,0.0,0.0,90,0.00,SCT,,0.00,0.0,WeatherDisplay:10.37,2013-09-30 07:22:00,
2013-09-30 03:27:00,45.2,42.4,30.07,SW,222,0.0,0.0,90,0.00,SCT,,0.00,0.0,WeatherDisplay:10.37,2013-09-30 07:27:00,
2013-09-30 03:32:00,45.5,42.7,30.07,SW,222,0.0,0.0,90,0.00,SCT,,0.00,0.0,WeatherDisplay:10.37,2013-09-30 07:32:00,
2013-09-30 03:37:00,45.4,42.6,30.07,SW,222,0.0,0.0,90,0.00,SCT,,0.00,0.0,WeatherDisplay:10.37,2013-09-30 07:37:00,
2013-09-30 03:42:00,45.2,42.4,30.07,SW,222,0.0,0.0,90,0.00,SCT,,0.00,0.0,WeatherDisplay:10.37,2013-09-30 07:42:00,
2013-09-30 03:47:00,45.4,42.6,30.07,SW,222,0.0,0.0,90,0.00,SCT,,0.00,0.0,WeatherDisplay:10.37,2013-09-30 07:47:00,
2013-09-30 03:52:00,45.5,42.7,30.07,SW,222,0.0,0.0,90,0.00,SCT,,0.00,0.0,WeatherDisplay:10.37,2013-09-30 07:52:00,
2013-09-30 03:57:00,45.4,42.6,30.07,SW,222,0.0,0.0,90,0.00,SCT,,0.00,0.0,WeatherDisplay:10.37,2013-09-30 07:57:00,
2013-09-30 04:02:00,45.1,42.3,30.07,SW,222,0.0,0.0,90,0.00,SCT,,0.00,0.0,WeatherDisplay:10.37,2013-09-30 08:02:00,
2013-09-30 04:07:00,44.8,42.0,30.07,SW,222,0.0,0.0,90,0.00,SCT,,0.00,0.0,WeatherDisplay:10.37,2013-09-30 08:07:00,
2013-09-30 04:12:00,44.6,41.8,30.07,SW,222,0.0,0.0,90,0.00,CLR,,0.00,0.0,WeatherDisplay:10.37,2013-09-30 08:12:00,
2013-09-30 04:17:00,44.6,41.8,30.07,SW,222,0.0,0.0,90,0.00,CLR,,0.00,0.0,WeatherDisplay:10.37,2013-09-30 08:17:00,
2013-09-30 04:22:00,44.8,42.0,30.07,SW,222,0.0,0.0,90,0.00,CLR,,0.00,0.0,WeatherDisplay:10.37,2013-09-30 08:22:00,
2013-09-30 04:27:00,44.8,42.3,30.07,SW,222,0.0,0.0,91,0.00,CLR,,0.00,0.0,WeatherDisplay:10.37,2013-09-30 08:27:00,
2013-09-30 04:32:00,44.8,42.0,30.07,SW,222,0.0,0.0,90,0.00,CLR,,0.00,0.0,WeatherDisplay:10.37,2013-09-30 08:32:00,
2013-09-30 04:37:00,44.6,42.1,30.07,SW,222,0.0,0.0,91,0.00,CLR,,0.00,0.0,WeatherDisplay:10.37,2013-09-30 08:37:00,
2013-09-30 04:42:00,44.5,41.7,30.07,SW,222,0.0,0.0,90,0.00,CLR,,0.00,0.0,WeatherDisplay:10.37,2013-09-30 08:42:00,
2013-09-30 04:47:00,44.6,42.1,30.07,SW,222,0.0,0.0,91,0.00,CLR,,0.00,0.0,WeatherDisplay:10.37,2013-09-30 08:47:00,
2013-09-30 04:52:00,44.6,42.1,30.07,SW,222,0.0,0.0,91,0.00,CLR,,0.00,0.0,WeatherDisplay:10.37,2013-09-30 08:52:00,
2013-09-30 04:57:00,44.6,42.1,30.07,SW,222,0.0,0.0,91,0.00,CLR,,0.00,0.0,WeatherDisplay:10.37,2013-09-30 08:57:00,
2013-09-30 05:02:00,44.8,42.3,30.07,SW,222,0.0,0.0,91,0.00,CLR,,0.00,0.0,WeatherDisplay:10.37,2013-09-30 09:02:00,
2013-09-30 05:07:00,44.6,42.1,30.07,SW,222,0.0,0.0,91,0.00,CLR,,0.00,0.0,WeatherDisplay:10.37,2013-09-30 09:07:00,
2013-09-30 05:12:00,44.6,42.1,30.07,SW,222,0.0,0.0,91,0.00,SCT,,0.00,0.0,WeatherDisplay:10.37,2013-09-30 09:12:00,
2013-09-30 05:17:00,44.6,42.1,30.07,SW,222,0.0,0.0,91,0.00,SCT,,0.00,0.0,WeatherDisplay:10.37,2013-09-30 09:17:00,
2013-09-30 05:22:00,44.6,42.1,30.07,SW,222,0.0,0.0,91,0.00,SCT,,0.00,0.0,WeatherDisplay:10.37,2013-09-30 09:22:00,
2013-09-30 05:27:00,44.6,42.1,30.07,SW,222,0.0,0.0,91,0.00,SCT,,0.00,0.0,WeatherDisplay:10.37,2013-09-30 09:27:00,
2013-09-30 05:32:00,44.5,42.0,30.07,SW,222,0.0,0.0,91,0.00,SCT,,0.00,0.0,WeatherDisplay:10.37,2013-09-30 09:32:00,
2013-09-30 05:37:00,44.3,41.8,30.07,SW,222,0.0,0.0,91,0.00,SCT,,0.00,0.0,WeatherDisplay:10.37,2013-09-30 09:37:00,
2013-09-30 05:42:00,44.3,41.8,30.08,SW,222,0.0,0.0,91,0.00,SCT,,0.00,0.0,WeatherDisplay:10.37,2013-09-30 09:42:00,
2013-09-30 05:47:00,44.2,41.7,30.08,SW,222,0.0,0.0,91,0.00,SCT,,0.00,0.0,WeatherDisplay:10.37,2013-09-30 09:47:00,
2013-09-30 05:52:00,44.2,41.7,30.08,SW,222,0.0,0.0,91,0.00,SCT,,0.00,0.0,WeatherDisplay:10.37,2013-09-30 09:52:00,
2013-09-30 05:57:00,44.3,41.8,30.09,SW,222,0.0,0.0,91,0.00,SCT,,0.00,0.0,WeatherDisplay:10.37,2013-09-30 09:57:00,
2013-09-30 06:02:00,44.9,42.4,30.09,SW,222,0.0,0.0,91,0.00,SCT,,0.00,0.0,WeatherDisplay:10.37,2013-09-30 10:02:00,
2013-09-30 06:07:00,45.2,42.7,30.09,SW,222,0.0,0.0,91,0.00,SCT,,0.00,0.0,WeatherDisplay:10.37,2013-09-30 10:07:00,
2013-09-30 06:12:00,45.2,42.7,30.09,SW,222,0.0,0.0,91,0.00,SCT,,0.00,0.0,WeatherDisplay:10.37,2013-09-30 10:12:00,
2013-09-30 06:17:00,44.9,42.4,30.09,SW,222,0.0,0.0,91,0.00,SCT,,0.00,0.0,WeatherDisplay:10.37,2013-09-30 10:17:00,
2013-09-30 06:22:00,44.6,42.1,30.09,SW,222,0.0,0.0,91,0.00,SCT,,0.00,0.0,WeatherDisplay:10.37,2013-09-30 10:22:00,
2013-09-30 06:27:00,44.3,41.8,30.09,SW,222,0.0,0.0,91,0.00,SCT,,0.00,0.0,WeatherDisplay:10.37,2013-09-30 10:27:00,
2013-09-30 06:32:00,44.2,41.7,30.09,SW,222,0.0,0.0,91,0.00,SCT,,0.00,0.0,WeatherDisplay:10.37,2013-09-30 10:32:00,
2013-09-30 06:37:00,44.1,41.6,30.09,SW,222,0.0,0.0,91,0.00,SCT,,0.00,0.0,WeatherDisplay:10.37,2013-09-30 10:37:00,
2013-09-30 06:42:00,44.1,41.6,30.09,SW,222,0.0,0.0,91,0.00,SCT,,0.00,0.0,WeatherDisplay:10.37,2013-09-30 10:42:00,
2013-09-30 06:47:00,44.1,41.6,30.09,SW,222,0.0,0.0,91,0.00,SCT,,0.00,0.0,WeatherDisplay:10.37,2013-09-30 10:47:00,
2013-09-30 06:52:00,44.2,41.7,30.09,SW,222,0.0,0.0,91,0.00,SCT,,0.00,0.0,WeatherDisplay:10.37,2013-09-30 10:52:00,
2013-09-30 06:57:00,44.2,41.7,30.10,SW,222,0.0,0.0,91,0.00,SCT,,0.00,0.0,WeatherDisplay:10.37,2013-09-30 10:57:00,
2013-09-30 07:02:00,44.1,41.6,30.10,SW,222,0.0,0.0,91,0.00,SCT,,0.00,5.0,WeatherDisplay:10.37,2013-09-30 11:02:00,
2013-09-30 07:07:00,44.1,41.6,30.10,SW,222,0.0,0.0,91,0.00,SCT,,0.00,0.0,WeatherDisplay:10.37,2013-09-30 11:07:00,
2013-09-30 07:12:00,44.1,41.6,30.10,SW,222,0.0,0.0,91,0.00,SCT,,0.00,5.0,WeatherDisplay:10.37,2013-09-30 11:12:00,
2013-09-30 07:17:00,43.9,41.4,30.10,SW,222,0.0,0.0,91,0.00,SCT,,0.00,9.0,WeatherDisplay:10.37,2013-09-30 11:17:00,
2013-09-30 07:22:00,43.9,41.4,30.10,SW,222,0.0,0.0,91,0.00,SCT,,0.00,11.0,WeatherDisplay:10.37,2013-09-30 11:22:00,
2013-09-30 07:27:00,44.1,41.6,30.10,SW,222,0.0,0.0,91,0.00,SCT,,0.00,16.0,WeatherDisplay:10.37,2013-09-30 11:27:00,
2013-09-30 07:32:00,44.1,41.6,30.10,SW,222,0.0,0.0,91,0.00,SCT,,0.00,25.0,WeatherDisplay:10.37,2013-09-30 11:32:00,
2013-09-30 07:37:00,43.9,41.4,30.10,SW,222,0.0,0.0,91,0.00,SCT,,0.00,30.0,WeatherDisplay:10.37,2013-09-30 11:37:00,
2013-09-30 07:42:00,44.2,41.7,30.10,SW,222,0.0,0.0,91,0.00,SCT,,0.00,33.0,WeatherDisplay:10.37,2013-09-30 11:42:00,
2013-09-30 07:47:00,44.3,41.8,30.10,SW,222,0.0,0.0,91,0.00,SCT,,0.00,65.0,WeatherDisplay:10.37,2013-09-30 11:47:00,
2013-09-30 07:52:00,44.9,42.7,30.10,SW,222,0.0,0.0,92,0.00,SCT,,0.00,76.0,WeatherDisplay:10.37,2013-09-30 11:52:00,
2013-09-30 07:57:00,46.1,43.9,30.10,SW,222,0.0,0.0,92,0.00,SCT,,0.00,97.0,WeatherDisplay:10.37,2013-09-30 11:57:00,
2013-09-30 08:02:00,46.8,44.6,30.11,SW,222,0.0,0.0,92,0.00,SCT,,0.00,97.0,WeatherDisplay:10.37,2013-09-30 12:02:00,
2013-09-30 08:07:00,47.7,45.5,30.11,SW,222,0.0,0.0,92,0.00,SCT,,0.00,127.0,WeatherDisplay:10.37,2013-09-30 12:07:00,
2013-09-30 08:12:00,49.1,46.9,30.11,SW,222,0.0,0.0,92,0.00,SCT,,0.00,144.0,WeatherDisplay:10.37,2013-09-30 12:12:00,
2013-09-30 08:17:00,49.6,47.4,30.11,SW,222,0.0,0.0,92,0.00,SCT,,0.00,160.0,WeatherDisplay:10.37,2013-09-30 12:17:00,
2013-09-30 08:22:00,50.7,48.5,30.11,SW,222,0.0,0.0,92,0.00,SCT,,0.00,172.0,WeatherDisplay:10.37,2013-09-30 12:22:00,
2013-09-30 08:27:00,51.4,49.2,30.11,SW,222,0.0,0.0,92,0.00,SCT,,0.00,192.0,WeatherDisplay:10.37,2013-09-30 12:27:00,
2013-09-30 08:32:00,52.0,49.7,30.11,SW,222,0.0,0.0,92,0.00,SCT,,0.00,207.0,WeatherDisplay:10.37,2013-09-30 12:32:00,
2013-09-30 08:37:00,52.0,49.7,30.11,SW,222,0.0,0.0,92,0.00,SCT,,0.00,123.0,WeatherDisplay:10.37,2013-09-30 12:37:00,
2013-09-30 08:42:00,52.0,49.7,30.11,SW,222,0.0,0.0,92,0.00,SCT,,0.00,248.0,WeatherDisplay:10.37,2013-09-30 12:42:00,
2013-09-30 08:47:00,52.0,49.7,30.11,SW,222,0.0,0.0,92,0.00,SCT,,0.00,244.0,WeatherDisplay:10.37,2013-09-30 12:47:00,
2013-09-30 08:52:00,52.0,49.7,30.11,SW,222,0.0,0.0,92,0.00,SCT,,0.00,176.0,WeatherDisplay:10.37,2013-09-30 12:52:00,
2013-09-30 08:57:00,52.0,49.7,30.11,SW,222,0.1,1.5,92,0.00,SCT,,0.00,281.0,WeatherDisplay:10.37,2013-09-30 12:57:00,
2013-09-30 09:02:00,52.5,50.2,30.11,SW,222,0.0,0.0,92,0.00,CLR,,0.00,292.0,WeatherDisplay:10.37,2013-09-30 13:02:00,
2013-09-30 09:07:00,53.2,50.9,30.11,SW,222,0.0,0.0,92,0.00,CLR,,0.00,308.0,WeatherDisplay:10.37,2013-09-30 13:07:00,
2013-09-30 09:12:00,53.2,50.9,30.11,SW,222,0.1,3.0,92,0.00,CLR,,0.00,318.0,WeatherDisplay:10.37,2013-09-30 13:12:00,
2013-09-30 09:17:00,53.8,51.5,30.11,SW,222,0.0,0.0,92,0.00,CLR,,0.00,336.0,WeatherDisplay:10.37,2013-09-30 13:17:00,
2013-09-30 09:23:00,54.5,52.2,30.11,SW,222,5.5,6.0,92,0.00,CLR,,0.00,359.0,WeatherDisplay:10.37,2013-09-30 13:23:00,
2013-09-30 09:28:00,54.5,51.9,30.11,SW,223,7.5,8.1,91,0.00,CLR,,0.00,374.0,WeatherDisplay:10.37,2013-09-30 13:28:00,
2013-09-30 09:33:00,54.8,52.2,30.11,SW,223,4.4,4.6,91,0.00,CLR,,0.00,390.0,WeatherDisplay:10.37,2013-09-30 13:33:00,
2013-09-30 09:38:00,55.3,52.7,30.11,South,191,4.0,8.1,91,0.00,CLR,,0.00,404.0,WeatherDisplay:10.37,2013-09-30 13:38:00,
2013-09-30 09:43:00,56.0,53.1,30.11,SSE,158,3.1,8.1,90,0.00,CLR,,0.00,417.0,WeatherDisplay:10.37,2013-09-30 13:43:00,
2013-09-30 09:48:00,56.6,53.1,30.11,SSE,159,3.6,4.6,88,0.00,CLR,,0.00,432.0,WeatherDisplay:10.37,2013-09-30 13:48:00,
2013-09-30 09:53:00,57.2,53.4,30.11,SSE,160,2.6,4.6,87,0.00,CLR,,0.00,443.0,WeatherDisplay:10.37,2013-09-30 13:53:00,
2013-09-30 09:58:00,57.6,52.8,30.11,SSE,159,2.9,5.8,84,0.00,CLR,,0.00,446.0,WeatherDisplay:10.37,2013-09-30 13:58:00,
2013-09-30 10:03:00,58.4,52.3,30.11,SSE,160,0.1,1.2,80,0.00,CLR,,0.00,468.0,WeatherDisplay:10.37,2013-09-30 14:03:00,
2013-09-30 10:08:00,58.9,51.7,30.11,SSE,161,1.3,4.6,77,0.00,CLR,,0.00,482.0,WeatherDisplay:10.37,2013-09-30 14:08:00,
2013-09-30 10:13:00,59.3,51.4,30.11,SSE,161,0.9,3.5,75,0.00,SCT,,0.00,494.0,WeatherDisplay:10.37,2013-09-30 14:13:00,
2013-09-30 10:18:00,60.1,51.4,30.11,SSE,160,0.9,5.8,73,0.00,SCT,,0.00,506.0,WeatherDisplay:10.37,2013-09-30 14:18:00,
2013-09-30 10:23:00,60.7,50.9,30.10,SSE,166,3.1,3.5,70,0.00,SCT,,0.00,517.0,WeatherDisplay:10.37,2013-09-30 14:23:00,
2013-09-30 10:28:00,61.3,51.4,30.10,SSE,166,0.0,1.2,70,0.00,SCT,,0.00,529.0,WeatherDisplay:10.37,2013-09-30 14:28:00,
2013-09-30 10:33:00,61.8,51.5,30.10,SSE,167,0.1,0.0,69,0.00,SCT,,0.00,540.0,WeatherDisplay:10.37,2013-09-30 14:33:00,
2013-09-30 10:38:00,62.3,51.6,30.10,South,169,0.7,3.5,68,0.00,SCT,,0.00,548.0,WeatherDisplay:10.37,2013-09-30 14:38:00,
2013-09-30 10:43:00,62.6,51.5,30.10,SSE,168,1.2,3.0,67,0.00,SCT,,0.00,557.0,WeatherDisplay:10.37,2013-09-30 14:43:00,
2013-09-30 10:48:00,63.1,51.6,30.10,SSE,164,5.7,5.7,66,0.00,SCT,,0.00,568.0,WeatherDisplay:10.37,2013-09-30 14:48:00,
2013-09-30 10:53:00,63.2,51.2,30.09,SSW,192,0.5,3.5,65,0.00,SCT,,0.00,578.0,WeatherDisplay:10.37,2013-09-30 14:53:00,
2013-09-30 10:58:00,63.9,52.3,30.09,SW,219,0.2,1.5,66,0.00,SCT,,0.00,587.0,WeatherDisplay:10.37,2013-09-30 14:58:00,
2013-09-30 11:03:00,64.7,53.1,30.09,WSW,258,2.9,4.6,66,0.00,SCT,,0.00,592.0,WeatherDisplay:10.37,2013-09-30 15:03:00,
2013-09-30 11:08:00,65.0,52.1,30.09,West,259,5.1,5.8,63,0.00,SCT,,0.00,605.0,WeatherDisplay:10.37,2013-09-30 15:08:00,
2013-09-30 11:13:00,64.7,51.8,30.09,WSW,252,4.5,5.8,63,0.00,SCT,,0.00,612.0,WeatherDisplay:10.37,2013-09-30 15:13:00,
2013-09-30 11:18:00,65.0,52.1,30.09,WSW,252,0.1,1.5,63,0.00,SCT,,0.00,621.0,WeatherDisplay:10.37,2013-09-30 15:18:00,
2013-09-30 11:23:00,65.6,52.2,30.09,WSW,252,0.1,5.8,62,0.00,SCT,,0.00,631.0,WeatherDisplay:10.37,2013-09-30 15:23:00,
2013-09-30 11:28:00,66.4,52.5,30.09,WSW,253,1.9,4.5,61,0.00,SCT,,0.00,638.0,WeatherDisplay:10.37,2013-09-30 15:28:00,
2013-09-30 11:33:00,66.9,52.6,30.08,WSW,254,3.1,4.6,60,0.00,SCT,,0.00,645.0,WeatherDisplay:10.37,2013-09-30 15:33:00,
2013-09-30 11:38:00,67.3,52.0,30.09,WSW,252,1.1,4.6,58,0.00,SCT,,0.00,650.0,WeatherDisplay:10.37,2013-09-30 15:38:00,
2013-09-30 11:43:00,68.1,52.8,30.08,South,175,1.8,4.5,58,0.00,SCT,,0.00,657.0,WeatherDisplay:10.37,2013-09-30 15:43:00,
2013-09-30 11:48:00,68.3,52.0,30.09,East,92,0.5,1.5,56,0.00,SCT,,0.00,654.0,WeatherDisplay:10.37,2013-09-30 15:48:00,
2013-09-30 11:53:00,68.3,52.0,30.08,WSW,255,1.1,4.6,56,0.00,SCT,,0.00,668.0,WeatherDisplay:10.37,2013-09-30 15:53:00,
2013-09-30 11:58:00,68.8,51.5,30.08,WSW,255,0.0,1.2,54,0.00,SCT,,0.00,668.0,WeatherDisplay:10.37,2013-09-30 15:58:00,
2013-09-30 12:03:00,69.1,51.2,30.08,SW,217,4.6,5.8,53,0.00,SCT,,0.00,673.0,WeatherDisplay:10.37,2013-09-30 16:03:00,
2013-09-30 12:08:00,69.4,51.0,30.07,SSW,209,2.8,8.1,52,0.00,SCT,,0.00,679.0,WeatherDisplay:10.37,2013-09-30 16:08:00,
2013-09-30 12:13:00,69.8,51.4,30.07,SW,214,1.7,3.5,52,0.00,CLR,,0.00,682.0,WeatherDisplay:10.37,2013-09-30 16:13:00,
2013-09-30 12:18:00,70.1,50.6,30.07,SSW,213,0.3,1.5,50,0.00,CLR,,0.00,682.0,WeatherDisplay:10.37,2013-09-30 16:18:00,
2013-09-30 12:23:00,70.3,50.2,30.07,SW,232,2.1,7.5,49,0.00,CLR,,0.00,686.0,WeatherDisplay:10.37,2013-09-30 16:23:00,
2013-09-30 12:28:00,70.4,50.3,30.07,SW,233,0.3,1.5,49,0.00,CLR,,0.00,687.0,WeatherDisplay:10.37,2013-09-30 16:28:00,
2013-09-30 12:33:00,70.8,51.2,30.07,SW,233,2.7,4.6,50,0.00,CLR,,0.00,691.0,WeatherDisplay:10.37,2013-09-30 16:33:00,
2013-09-30 12:38:00,71.3,50.6,30.06,ESE,104,0.1,1.2,48,0.00,CLR,,0.00,691.0,WeatherDisplay:10.37,2013-09-30 16:38:00,
2013-09-30 12:43:00,71.5,51.3,30.06,SW,229,3.9,9.2,49,0.00,CLR,,0.00,696.0,WeatherDisplay:10.37,2013-09-30 16:43:00,
2013-09-30 12:48:00,71.5,50.2,30.06,West,269,3.0,5.8,47,0.00,CLR,,0.00,694.0,WeatherDisplay:10.37,2013-09-30 16:48:00,
2013-09-30 12:53:00,71.8,49.9,30.06,SW,225,6.4,9.0,46,0.00,CLR,,0.00,703.0,WeatherDisplay:10.37,2013-09-30 16:53:00,
2013-09-30 12:58:00,71.8,49.9,30.06,East,94,4.6,4.6,46,0.00,CLR,,0.00,705.0,WeatherDisplay:10.37,2013-09-30 16:58:00,
2013-09-30 13:03:00,72.0,50.7,30.06,East,92,1.1,4.5,47,0.00,CLR,,0.00,698.0,WeatherDisplay:10.37,2013-09-30 17:03:00,
2013-09-30 13:08:00,71.6,49.7,30.06,ENE,74,0.0,1.2,46,0.00,CLR,,0.00,693.0,WeatherDisplay:10.37,2013-09-30 17:08:00,
2013-09-30 13:13:00,72.0,49.5,30.05,SW,221,14.3,14.3,45,0.00,SCT,,0.00,142.0,WeatherDisplay:10.37,2013-09-30 17:13:00,
2013-09-30 13:18:00,71.8,49.9,30.05,SW,222,0.0,0.0,46,0.00,SCT,,0.00,149.0,WeatherDisplay:10.37,2013-09-30 17:18:00,
2013-09-30 13:23:00,71.5,49.6,30.05,SW,221,0.2,1.5,46,0.00,SCT,,0.00,705.0,WeatherDisplay:10.37,2013-09-30 17:23:00,
2013-09-30 13:28:00,72.1,50.8,30.04,WSW,249,4.2,6.0,47,0.00,SCT,,0.00,694.0,WeatherDisplay:10.37,2013-09-30 17:28:00,
2013-09-30 13:33:00,72.5,49.9,30.04,South,190,1.1,4.6,45,0.00,SCT,,0.00,693.0,WeatherDisplay:10.37,2013-09-30 17:33:00,
2013-09-30 13:38:00,72.7,49.5,30.04,WSW,252,2.2,8.1,44,0.00,SCT,,0.00,682.0,WeatherDisplay:10.37,2013-09-30 17:38:00,
2013-09-30 13:43:00,72.8,49.0,30.04,North,360,0.5,1.5,43,0.00,SCT,,0.00,675.0,WeatherDisplay:10.37,2013-09-30 17:43:00,
2013-09-30 13:48:00,73.2,49.4,30.03,NE,34,0.4,4.6,43,0.00,SCT,,0.00,659.0,WeatherDisplay:10.37,2013-09-30 17:48:00,
2013-09-30 13:53:00,73.3,49.4,30.03,WNW,299,0.0,0.0,43,0.00,SCT,,0.00,677.0,WeatherDisplay:10.37,2013-09-30 17:53:00,
2013-09-30 13:58:00,73.7,49.2,30.03,WNW,300,0.1,1.2,42,0.00,SCT,,0.00,673.0,WeatherDisplay:10.37,2013-09-30 17:58:00,
2013-09-30 14:03:00,74.2,48.3,30.03,SW,219,4.7,8.1,40,0.00,SCT,,0.00,664.0,WeatherDisplay:10.37,2013-09-30 18:03:00,
2013-09-30 14:08:00,74.0,48.1,30.02,SW,225,1.0,3.5,40,0.00,SCT,,0.00,664.0,WeatherDisplay:10.37,2013-09-30 18:08:00,
2013-09-30 14:13:00,74.2,49.6,30.02,SSW,192,2.1,5.8,42,0.00,SCT,,0.00,657.0,WeatherDisplay:10.37,2013-09-30 18:13:00,
2013-09-30 14:18:00,74.0,48.1,30.02,East,97,3.3,8.1,40,0.00,SCT,,0.00,654.0,WeatherDisplay:10.37,2013-09-30 18:18:00,
2013-09-30 14:23:00,74.0,48.1,30.02,ENE,66,0.1,1.5,40,0.00,SCT,,0.00,650.0,WeatherDisplay:10.37,2013-09-30 18:23:00,
2013-09-30 14:28:00,74.4,49.8,30.02,North,351,5.2,8.1,42,0.00,SCT,,0.00,633.0,WeatherDisplay:10.37,2013-09-30 18:28:00,
2013-09-30 14:33:00,74.9,49.6,30.02,NNE,28,3.6,4.6,41,0.00,SCT,,0.00,633.0,WeatherDisplay:10.37,2013-09-30 18:33:00,
2013-09-30 14:38:00,74.6,48.7,30.01,NNE,19,0.7,4.6,40,0.00,SCT,,0.00,610.0,WeatherDisplay:10.37,2013-09-30 18:38:00,
2013-09-30 14:43:00,74.6,48.0,30.01,NNE,14,0.0,0.0,39,0.00,SCT,,0.00,608.0,WeatherDisplay:10.37,2013-09-30 18:43:00,
2013-09-30 14:48:00,74.4,48.5,30.01,ENE,69,0.6,1.5,40,0.00,SCT,,0.00,598.0,WeatherDisplay:10.37,2013-09-30 18:48:00,
2013-09-30 14:53:00,75.1,50.4,30.01,ENE,69,0.2,1.5,42,0.00,SCT,,0.00,589.0,WeatherDisplay:10.37,2013-09-30 18:53:00,
2013-09-30 14:58:00,75.8,48.4,30.00,ENE,65,0.0,1.2,38,0.00,SCT,,0.00,578.0,WeatherDisplay:10.37,2013-09-30 18:58:00,
2013-09-30 15:03:00,75.4,48.0,30.00,NNE,30,5.3,8.1,38,0.00,SCT,,0.00,575.0,WeatherDisplay:10.37,2013-09-30 19:03:00,
2013-09-30 15:08:00,75.3,47.9,30.00,West,265,4.6,4.6,38,0.00,SCT,,0.00,561.0,WeatherDisplay:10.37,2013-09-30 19:08:00,
2013-09-30 15:13:00,75.3,47.9,30.00,East,98,4.6,4.6,38,0.00,SCT,,0.00,550.0,WeatherDisplay:10.37,2013-09-30 19:13:00,
2013-09-30 15:18:00,75.6,49.6,30.00,East,93,0.1,1.5,40,0.00,SCT,,0.00,538.0,WeatherDisplay:10.37,2013-09-30 19:18:00,
2013-09-30 15:23:00,75.8,49.1,30.00,NE,40,0.0,5.8,39,0.00,SCT,,0.00,540.0,WeatherDisplay:10.37,2013-09-30 19:23:00,
2013-09-30 15:28:00,75.8,47.7,29.99,ENE,76,0.8,3.5,37,0.00,SCT,,0.00,520.0,WeatherDisplay:10.37,2013-09-30 19:28:00,
2013-09-30 15:33:00,75.6,47.5,29.99,NE,55,4.3,4.6,37,0.00,SCT,,0.00,508.0,WeatherDisplay:10.37,2013-09-30 19:33:00,
2013-09-30 15:38:00,75.3,47.9,29.99,East,90,4.1,4.5,38,0.00,SCT,,0.00,496.0,WeatherDisplay:10.37,2013-09-30 19:38:00,
2013-09-30 15:43:00,75.8,48.4,29.99,East,88,0.4,3.0,38,0.00,SCT,,0.00,480.0,WeatherDisplay:10.37,2013-09-30 19:43:00,
2013-09-30 15:48:00,76.0,47.8,29.99,NNE,14,1.4,4.6,37,0.00,SCT,,0.00,471.0,WeatherDisplay:10.37,2013-09-30 19:48:00,
2013-09-30 15:53:00,75.8,48.4,29.99,East,100,4.2,9.0,38,0.00,SCT,,0.00,459.0,WeatherDisplay:10.37,2013-09-30 19:53:00,
2013-09-30 15:58:00,76.0,48.6,29.99,NNE,25,3.0,9.2,38,0.00,SCT,,0.00,446.0,WeatherDisplay:10.37,2013-09-30 19:58:00,
2013-09-30 16:03:00,75.8,47.7,29.99,North,9,0.3,5.8,37,0.00,SCT,,0.00,434.0,WeatherDisplay:10.37,2013-09-30 20:03:00,
2013-09-30 16:08:00,75.4,47.3,29.99,NE,49,2.7,4.6,37,0.00,SCT,,0.00,420.0,WeatherDisplay:10.37,2013-09-30 20:08:00,
2013-09-30 16:13:00,75.4,48.0,29.99,ENE,64,3.9,4.6,38,0.00,SCT,,0.00,404.0,WeatherDisplay:10.37,2013-09-30 20:13:00,
2013-09-30 16:18:00,75.4,48.7,29.99,ENE,74,2.6,5.8,39,0.00,SCT,,0.00,392.0,WeatherDisplay:10.37,2013-09-30 20:18:00,
2013-09-30 16:23:00,75.6,46.8,29.99,East,79,0.1,1.5,36,0.00,SCT,,0.00,380.0,WeatherDisplay:10.37,2013-09-30 20:23:00,
2013-09-30 16:28:00,76.0,47.8,29.98,WSW,257,3.7,6.0,37,0.00,SCT,,0.00,367.0,WeatherDisplay:10.37,2013-09-30 20:28:00,
2013-09-30 16:33:00,75.8,47.7,29.98,North,355,2.3,4.6,37,0.00,SCT,,0.00,353.0,WeatherDisplay:10.37,2013-09-30 20:33:00,
2013-09-30 16:38:00,75.8,47.7,29.98,North,355,1.3,3.5,37,0.00,SCT,,0.00,339.0,WeatherDisplay:10.37,2013-09-30 20:38:00,
2013-09-30 16:43:00,75.6,46.0,29.99,NNW,340,1.3,1.5,35,0.00,SCT,,0.00,323.0,WeatherDisplay:10.37,2013-09-30 20:43:00,
2013-09-30 16:48:00,75.8,46.2,29.99,NNW,345,4.5,4.6,35,0.00,SCT,,0.00,309.0,WeatherDisplay:10.37,2013-09-30 20:48:00,
2013-09-30 16:53:00,75.6,46.8,29.99,NNW,344,1.5,3.5,36,0.00,SCT,,0.00,297.0,WeatherDisplay:10.37,2013-09-30 20:53:00,
2013-09-30 16:58:00,75.4,46.6,29.99,North,355,1.5,4.6,36,0.00,SCT,,0.00,281.0,WeatherDisplay:10.37,2013-09-30 20:58:00,
2013-09-30 17:03:00,75.4,46.6,29.99,NW,318,1.2,4.6,36,0.00,SCT,,0.00,267.0,WeatherDisplay:10.37,2013-09-30 21:03:00,
2013-09-30 17:08:00,75.4,46.6,29.99,NW,319,0.5,1.5,36,0.00,SCT,,0.00,253.0,WeatherDisplay:10.37,2013-09-30 21:08:00,
2013-09-30 17:13:00,75.1,46.3,29.99,NNE,25,1.7,3.5,36,0.00,SCT,,0.00,236.0,WeatherDisplay:10.37,2013-09-30 21:13:00,
2013-09-30 17:18:00,74.9,46.9,29.99,NNE,13,0.2,3.5,37,0.00,SCT,,0.00,220.0,WeatherDisplay:10.37,2013-09-30 21:18:00,
2013-09-30 17:23:00,74.7,46.7,29.99,NNW,344,2.5,4.6,37,0.00,SCT,,0.00,202.0,WeatherDisplay:10.37,2013-09-30 21:23:00,
2013-09-30 17:28:00,74.6,47.3,29.99,NNE,24,1.3,4.6,38,0.00,SCT,,0.00,185.0,WeatherDisplay:10.37,2013-09-30 21:28:00,
2013-09-30 17:33:00,74.4,47.8,29.99,NNE,25,0.1,1.2,39,0.00,SCT,,0.00,158.0,WeatherDisplay:10.37,2013-09-30 21:33:00,
2013-09-30 17:38:00,74.4,47.8,29.99,NNE,26,0.1,1.5,39,0.00,SCT,,0.00,144.0,WeatherDisplay:10.37,2013-09-30 21:38:00,
2013-09-30 17:43:00,74.4,47.1,29.99,NNE,26,0.0,0.0,38,0.00,SCT,,0.00,114.0,WeatherDisplay:10.37,2013-09-30 21:43:00,
2013-09-30 17:48:00,74.2,47.6,29.99,NNE,26,0.3,1.5,39,0.00,SCT,,0.00,90.0,WeatherDisplay:10.37,2013-09-30 21:48:00,
2013-09-30 17:53:00,74.0,48.1,29.99,NNE,26,0.0,0.0,40,0.00,SCT,,0.00,69.0,WeatherDisplay:10.37,2013-09-30 21:53:00,
2013-09-30 17:58:00,73.7,47.2,29.99,NNE,26,0.1,1.2,39,0.00,SCT,,0.00,63.0,WeatherDisplay:10.37,2013-09-30 21:58:00,
2013-09-30 18:03:00,73.5,47.7,29.99,NNE,26,0.4,1.5,40,0.00,SCT,,0.00,53.0,WeatherDisplay:10.37,2013-09-30 22:03:00,
2013-09-30 18:08:00,73.2,47.4,30.00,NNE,26,0.0,0.0,40,0.00,SCT,,0.00,37.0,WeatherDisplay:10.37,2013-09-30 22:08:00,
2013-09-30 18:13:00,73.0,47.9,30.00,NNE,26,0.1,1.2,41,0.00,SCT,,0.00,42.0,WeatherDisplay:10.37,2013-09-30 22:13:00,
2013-09-30 18:18:00,72.7,50.1,30.00,NNE,26,0.0,0.0,45,0.00,SCT,,0.00,33.0,WeatherDisplay:10.37,2013-09-30 22:18:00,
2013-09-30 18:23:00,72.1,50.2,30.00,NNE,26,0.0,0.0,46,0.00,SCT,,0.00,26.0,WeatherDisplay:10.37,2013-09-30 22:23:00,
2013-09-30 18:28:00,71.5,50.8,30.00,NNE,26,0.0,0.0,48,0.00,SCT,,0.00,21.0,WeatherDisplay:10.37,2013-09-30 22:28:00,
2013-09-30 18:33:00,70.8,50.1,30.00,NNE,26,0.0,0.0,48,0.00,SCT,,0.00,16.0,WeatherDisplay:10.37,2013-09-30 22:33:00,
2013-09-30 18:38:00,69.9,49.9,30.00,NNE,26,0.0,0.0,49,0.00,SCT,,0.00,12.0,WeatherDisplay:10.37,2013-09-30 22:38:00,
2013-09-30 18:43:00,68.9,50.0,30.00,NNE,26,0.0,0.0,51,0.00,SCT,,0.00,11.0,WeatherDisplay:10.37,2013-09-30 22:43:00,
2013-09-30 18:48:00,67.8,50.0,30.00,NNE,26,0.0,0.0,53,0.00,SCT,,0.00,7.0,WeatherDisplay:10.37,2013-09-30 22:48:00,
2013-09-30 18:53:00,66.9,49.7,30.00,NNE,26,0.0,0.0,54,0.00,SCT,,0.00,0.0,WeatherDisplay:10.37,2013-09-30 22:53:00,
2013-09-30 18:58:00,66.3,49.6,30.00,NNE,26,0.0,0.0,55,0.00,SCT,,0.00,0.0,WeatherDisplay:10.37,2013-09-30 22:58:00,
2013-09-30 19:03:00,65.2,49.6,30.00,NNE,26,0.0,0.0,57,0.00,SCT,,0.00,0.0,WeatherDisplay:10.37,2013-09-30 23:03:00,
2013-09-30 19:08:00,64.2,49.6,30.00,NNE,26,0.0,0.0,59,0.00,SCT,,0.00,0.0,WeatherDisplay:10.37,2013-09-30 23:08:00,
2013-09-30 19:13:00,63.5,49.8,30.01,NNE,26,0.0,0.0,61,0.00,SCT,,0.00,0.0,WeatherDisplay:10.37,2013-09-30 23:13:00,
2013-09-30 19:18:00,63.2,50.4,30.01,NNE,26,0.0,0.0,63,0.00,SCT,,0.00,0.0,WeatherDisplay:10.37,2013-09-30 23:18:00,
2013-09-30 19:23:00,62.4,50.1,30.01,NNE,26,0.0,0.0,64,0.00,SCT,,0.00,0.0,WeatherDisplay:10.37,2013-09-30 23:23:00,
2013-09-30 19:28:00,62.0,50.1,30.01,NNE,26,0.0,0.0,65,0.00,SCT,,0.00,0.0,WeatherDisplay:10.37,2013-09-30 23:28:00,
2013-09-30 19:33:00,61.5,50.4,30.01,NNE,26,0.0,0.0,67,0.00,SCT,,0.00,0.0,WeatherDisplay:10.37,2013-09-30 23:33:00,
2013-09-30 19:38:00,61.0,50.4,30.02,NNE,26,0.0,0.0,68,0.00,SCT,,0.00,0.0,WeatherDisplay:10.37,2013-09-30 23:38:00,
2013-09-30 19:43:00,60.5,50.3,30.02,NNE,26,0.0,0.0,69,0.00,SCT,,0.00,0.0,WeatherDisplay:10.37,2013-09-30 23:43:00,
2013-09-30 19:48:00,60.2,50.0,30.02,NNE,26,0.0,0.0,69,0.00,SCT,,0.00,0.0,WeatherDisplay:10.37,2013-09-30 23:48:00,
2013-09-30 19:53:00,60.1,51.0,30.02,NNE,26,0.0,0.0,72,0.00,SCT,,0.00,0.0,WeatherDisplay:10.37,2013-09-30 23:53:00,
2013-09-30 19:58:00,59.9,51.2,30.02,NNE,26,0.0,0.0,73,0.00,SCT,,0.00,0.0,WeatherDisplay:10.37,2013-09-30 23:58:00,
2013-09-30 20:03:00,59.6,51.3,30.02,NNE,26,0.0,0.0,74,0.00,FEW,,0.00,0.0,WeatherDisplay:10.37,2013-10-01 00:03:00,
2013-09-30 20:08:00,59.5,51.6,30.02,NNE,26,0.0,0.0,75,0.00,FEW,,0.00,0.0,WeatherDisplay:10.37,2013-10-01 00:08:00,
2013-09-30 20:13:00,59.3,51.4,30.02,NNE,26,0.0,0.0,75,0.00,FEW,,0.00,0.0,WeatherDisplay:10.37,2013-10-01 00:13:00,
2013-09-30 20:18:00,59.0,51.1,30.03,NNE,26,0.0,0.0,75,0.00,FEW,,0.00,0.0,WeatherDisplay:10.37,2013-10-01 00:18:00,
2013-09-30 20:23:00,58.9,51.3,30.03,NNE,26,0.0,0.0,76,0.00,FEW,,0.00,0.0,WeatherDisplay:10.37,2013-10-01 00:23:00,
2013-09-30 20:28:00,58.6,51.1,30.03,NNE,26,0.0,0.0,76,0.00,FEW,,0.00,0.0,WeatherDisplay:10.37,2013-10-01 00:28:00,
2013-09-30 20:33:00,58.4,51.2,30.03,NNE,26,0.0,0.0,77,0.00,FEW,,0.00,0.0,WeatherDisplay:10.37,2013-10-01 00:33:00,
2013-09-30 20:38:00,58.1,50.9,30.03,NNE,26,0.0,0.0,77,0.00,FEW,,0.00,0.0,WeatherDisplay:10.37,2013-10-01 00:38:00,
2013-09-30 20:43:00,58.0,51.2,30.03,NNE,26,0.0,0.0,78,0.00,FEW,,0.00,0.0,WeatherDisplay:10.37,2013-10-01 00:43:00,
2013-09-30 20:48:00,57.6,50.8,30.03,NNE,26,0.0,0.0,78,0.00,FEW,,0.00,0.0,WeatherDisplay:10.37,2013-10-01 00:48:00,
2013-09-30 20:53:00,57.6,50.8,30.03,NNE,26,0.0,0.0,78,0.00,FEW,,0.00,0.0,WeatherDisplay:10.37,2013-10-01 00:53:00,
2013-09-30 20:58:00,57.3,50.5,30.03,NNE,26,0.0,0.0,78,0.00,FEW,,0.00,0.0,WeatherDisplay:10.37,2013-10-01 00:58:00,
2013-09-30 21:03:00,57.2,50.7,30.04,NNE,26,0.0,0.0,79,0.00,FEW,,0.00,0.0,WeatherDisplay:10.37,2013-10-01 01:03:00,
2013-09-30 21:08:00,57.0,50.5,30.04,NNE,26,0.0,0.0,79,0.00,FEW,,0.00,0.0,WeatherDisplay:10.37,2013-10-01 01:08:00,
2013-09-30 21:13:00,57.0,50.9,30.04,NNE,26,0.0,0.0,80,0.00,FEW,,0.00,0.0,WeatherDisplay:10.37,2013-10-01 01:13:00,
2013-09-30 21:18:00,57.0,50.9,30.04,NNE,26,0.0,0.0,80,0.00,FEW,,0.00,0.0,WeatherDisplay:10.37,2013-10-01 01:18:00,
2013-09-30 21:23:00,56.9,50.8,30.04,NNE,26,0.0,0.0,80,0.00,FEW,,0.00,0.0,WeatherDisplay:10.37,2013-10-01 01:23:00,
2013-09-30 21:28:00,56.7,50.9,30.04,NNE,26,0.0,0.0,81,0.00,FEW,,0.00,0.0,WeatherDisplay:10.37,2013-10-01 01:28:00,
2013-09-30 21:33:00,56.7,50.9,30.04,NNE,26,0.0,0.0,81,0.00,FEW,,0.00,0.0,WeatherDisplay:10.37,2013-10-01 01:33:00,
2013-09-30 21:38:00,56.7,50.9,30.04,NNE,26,0.0,0.0,81,0.00,FEW,,0.00,0.0,WeatherDisplay:10.37,2013-10-01 01:38:00,
2013-09-30 21:43:00,57.0,51.6,30.04,NNE,26,0.0,0.0,82,0.00,FEW,,0.00,0.0,WeatherDisplay:10.37,2013-10-01 01:43:00,
2013-09-30 21:48:00,57.3,51.9,30.04,NNE,26,0.0,0.0,82,0.00,FEW,,0.00,0.0,WeatherDisplay:10.37,2013-10-01 01:48:00,
2013-09-30 21:53:00,57.3,51.9,30.04,NNE,26,0.0,0.0,82,0.00,FEW,,0.00,0.0,WeatherDisplay:10.37,2013-10-01 01:53:00,
2013-09-30 21:58:00,57.5,52.0,30.04,NNE,26,0.0,0.0,82,0.00,FEW,,0.00,0.0,WeatherDisplay:10.37,2013-10-01 01:58:00,
2013-09-30 22:03:00,57.5,52.4,30.04,NNE,26,0.0,0.0,83,0.00,FEW,,0.00,0.0,WeatherDisplay:10.37,2013-10-01 02:03:00,
2013-09-30 22:08:00,57.5,52.4,30.04,NNE,26,0.0,0.0,83,0.00,FEW,,0.00,0.0,WeatherDisplay:10.37,2013-10-01 02:08:00,
2013-09-30 22:13:00,57.6,52.5,30.04,NNE,26,0.0,0.0,83,0.00,FEW,,0.00,0.0,WeatherDisplay:10.37,2013-10-01 02:13:00,
2013-09-30 22:18:00,57.6,52.5,30.04,NNE,26,0.0,0.0,83,0.00,FEW,,0.00,0.0,WeatherDisplay:10.37,2013-10-01 02:18:00,
2013-09-30 22:23:00,57.6,52.5,30.04,NNE,26,0.0,0.0,83,0.00,FEW,,0.00,0.0,WeatherDisplay:10.37,2013-10-01 02:23:00,
2013-09-30 22:28:00,57.5,52.4,30.04,NNE,26,0.0,0.0,83,0.00,FEW,,0.00,0.0,WeatherDisplay:10.37,2013-10-01 02:28:00,
2013-09-30 22:33:00,57.0,51.6,30.04,NNE,26,0.0,0.0,82,0.00,FEW,,0.00,0.0,WeatherDisplay:10.37,2013-10-01 02:33:00,
2013-09-30 22:38:00,56.7,51.3,30.04,NNE,26,0.0,0.0,82,0.00,FEW,,0.00,0.0,WeatherDisplay:10.37,2013-10-01 02:38:00,
2013-09-30 22:43:00,56.5,51.1,30.04,NNE,26,0.0,0.0,82,0.00,FEW,,0.00,0.0,WeatherDisplay:10.37,2013-10-01 02:43:00,
2013-09-30 22:48:00,56.2,50.4,30.04,NNE,26,0.0,0.0,81,0.00,FEW,,0.00,0.0,WeatherDisplay:10.37,2013-10-01 02:48:00,
2013-09-30 22:53:00,55.7,50.0,30.04,NNE,26,0.0,0.0,81,0.00,FEW,,0.00,0.0,WeatherDisplay:10.37,2013-10-01 02:53:00,
2013-09-30 22:58:00,55.6,49.9,30.03,NNE,26,0.0,0.0,81,0.00,FEW,,0.00,0.0,WeatherDisplay:10.37,2013-10-01 02:58:00,
2013-09-30 23:03:00,55.3,49.9,30.03,NNE,26,0.0,0.0,82,0.00,FEW,,0.00,0.0,WeatherDisplay:10.37,2013-10-01 03:03:00,
2013-09-30 23:08:00,55.1,49.7,30.03,NNE,26,0.0,0.0,82,0.00,FEW,,0.00,0.0,WeatherDisplay:10.37,2013-10-01 03:08:00,
2013-09-30 23:13:00,54.8,49.4,30.03,NNE,26,0.0,0.0,82,0.00,FEW,,0.00,0.0,WeatherDisplay:10.37,2013-10-01 03:13:00,
2013-09-30 23:18:00,54.5,49.1,30.03,NNE,26,0.0,0.0,82,0.00,FEW,,0.00,0.0,WeatherDisplay:10.37,2013-10-01 03:18:00,
2013-09-30 23:23:00,54.5,49.4,30.03,NNE,26,0.0,0.0,83,0.00,FEW,,0.00,0.0,WeatherDisplay:10.37,2013-10-01 03:23:00,
2013-09-30 23:28:00,54.7,49.6,30.03,NNE,26,0.0,0.0,83,0.00,FEW,,0.00,0.0,WeatherDisplay:10.37,2013-10-01 03:28:00,
2013-09-30 23:33:00,54.7,49.6,30.03,NNE,26,0.0,0.0,83,0.00,FEW,,0.00,0.0,WeatherDisplay:10.37,2013-10-01 03:33:00,
2013-09-30 23:38:00,54.7,50.0,30.03,NNE,26,0.0,0.0,84,0.00,FEW,,0.00,0.0,WeatherDisplay:10.37,2013-10-01 03:38:00,
2013-09-30 23:43:00,54.5,49.8,30.03,NNE,26,0.0,0.0,84,0.00,FEW,,0.00,0.0,WeatherDisplay:10.37,2013-10-01 03:43:00,
2013-09-30 23:48:00,54.5,49.8,30.03,NNE,26,0.0,0.0,84,0.00,FEW,,0.00,0.0,WeatherDisplay:10.37,2013-10-01 03:48:00,
2013-09-30 23:53:00,54.4,49.7,30.03,NNE,26,0.0,0.0,84,0.00,FEW,,0.00,0.0,WeatherDisplay:10.37,2013-10-01 03:53:00,
2013-09-30 23:58:00,54.4,50.0,30.03,NNE,26,0.0,0.0,85,0.00,FEW,,0.00,0.0,WeatherDisplay:10.37,2013-10-01 03:58:00,